Time;durP1;ratioP1;P1;durP2;ratioP2;P2;SDS_P1;SDS_P2;PMS_P1;PMS_P2;Temp;Humidity;BMP_temperature;BMP_pressure;BME280_temperature;BME280_humidity;BME280_pressure;Samples;Min_cycle;Max_cycle;Signal;HPM_P1;HPM_P2
2023/07/30 00:02:05;;;;;;;3.03;1.90;;;19.30;81.90;;;18.20;100.00;95645.03;4979603;28;20089;-72
2023/07/30 00:04:30;;;;;;;3.25;2.00;;;19.30;81.70;;;18.17;100.00;95643.66;4982711;28;20041;-72
2023/07/30 00:06:56;;;;;;;2.80;1.75;;;19.30;81.70;;;18.16;100.00;95655.38;4947135;28;20066;-72
2023/07/30 00:09:22;;;;;;;3.47;2.03;;;19.20;81.60;;;18.13;100.00;95644.41;4983847;28;20467;-72
2023/07/30 00:11:47;;;;;;;3.53;2.03;;;19.20;81.90;;;18.10;100.00;95651.00;4983255;28;20524;-72
2023/07/30 00:14:13;;;;;;;3.95;2.08;;;19.30;82.00;;;18.07;100.00;95646.19;4982183;28;20099;-72
2023/07/30 00:16:39;;;;;;;2.40;1.73;;;19.10;81.70;;;18.03;100.00;95647.72;4983544;28;20114;-72
2023/07/30 00:19:07;;;;;;;4.25;2.08;;;19.10;82.20;;;18.01;100.00;95647.97;4966021;28;20129;-72
2023/07/30 00:21:32;;;;;;;3.50;2.10;;;19.10;81.70;;;18.02;100.00;95648.78;4983586;28;20588;-72
2023/07/30 00:23:59;;;;;;;3.00;2.03;;;19.10;82.00;;;18.01;100.00;95657.81;4980275;28;20094;-73
2023/07/30 00:26:26;;;;;;;2.47;1.80;;;19.10;81.90;;;17.98;100.00;95653.00;4966986;28;20529;-74
2023/07/30 00:28:51;;;;;;;3.70;1.95;;;19.10;81.50;;;17.96;100.00;95649.78;4967100;28;20110;-72
2023/07/30 00:31:17;;;;;;;2.90;1.92;;;19.10;81.80;;;17.96;100.00;95649.78;4997615;28;20069;-73
2023/07/30 00:33:43;;;;;;;2.53;1.75;;;19.10;82.20;;;17.95;100.00;95642.84;4964310;28;20062;-72
2023/07/30 00:36:09;;;;;;;1.92;1.70;;;19.10;82.20;;;17.93;100.00;95647.63;4966647;28;20073;-72
2023/07/30 00:38:34;;;;;;;2.30;1.75;;;19.10;82.20;;;17.92;100.00;95643.34;4966486;28;20074;-72
2023/07/30 00:41:00;;;;;;;4.50;1.75;;;19.10;82.10;;;17.90;100.00;95640.13;4991800;28;20062;-72
2023/07/30 00:43:26;;;;;;;2.25;1.50;;;19.10;82.00;;;17.90;100.00;95640.94;4966229;28;20058;-72
2023/07/30 00:45:51;;;;;;;4.20;1.88;;;19.00;82.10;;;17.88;100.00;95642.19;4966756;28;20125;-72
2023/07/30 00:48:17;;;;;;;3.65;1.80;;;19.00;82.10;;;17.87;100.00;95645.91;4967261;28;20564;-73
2023/07/30 00:50:43;;;;;;;3.75;1.92;;;19.00;82.10;;;17.85;100.00;95654.13;4966179;28;20030;-72
2023/07/30 00:53:09;;;;;;;3.88;1.85;;;19.00;81.90;;;17.85;100.00;95656.00;4978381;28;20536;-72
2023/07/30 00:55:35;;;;;;;3.58;1.65;;;19.00;82.10;;;17.86;100.00;95661.06;4956289;28;20064;-72
2023/07/30 00:58:01;;;;;;;2.38;1.73;;;19.00;82.10;;;17.84;100.00;95659.72;4982167;28;20510;-73
2023/07/30 01:00:29;;;;;;;2.50;1.50;;;19.10;82.30;;;17.86;100.00;95660.25;4965698;28;20033;-72
2023/07/30 01:02:55;;;;;;;4.32;1.63;;;19.10;82.40;;;17.86;100.00;95662.94;4957448;28;20042;-72
2023/07/30 01:05:21;;;;;;;3.47;2.08;;;19.10;82.30;;;17.87;100.00;95667.19;4962824;28;20035;-71
2023/07/30 01:07:47;;;;;;;2.95;1.70;;;19.10;82.00;;;17.88;100.00;95658.16;4982207;28;20144;-72
2023/07/30 01:10:12;;;;;;;2.17;1.65;;;19.00;81.70;;;17.86;100.00;95657.59;4978991;28;20197;-71
2023/07/30 01:12:38;;;;;;;3.15;1.70;;;18.90;81.50;;;17.84;100.00;95659.72;4966840;28;20157;-72
2023/07/30 01:15:05;;;;;;;3.15;1.80;;;18.90;81.50;;;17.80;100.00;95658.59;4961237;28;20193;-71
2023/07/30 01:17:30;;;;;;;2.35;1.70;;;18.90;81.20;;;17.78;100.00;95658.03;4980326;28;20045;-72
2023/07/30 01:19:56;;;;;;;6.28;2.17;;;18.90;81.50;;;17.76;100.00;95647.63;4978972;28;20030;-72
2023/07/30 01:22:22;;;;;;;2.65;1.63;;;18.90;81.50;;;17.74;100.00;95647.88;4953567;28;20050;-72
2023/07/30 01:24:48;;;;;;;2.95;1.90;;;18.80;81.30;;;17.72;100.00;95655.31;4980885;28;20030;-71
2023/07/30 01:27:25;;;;;;;3.00;1.60;;;18.80;81.40;;;17.72;100.00;95649.19;4964579;28;20113;-71
2023/07/30 01:29:56;;;;;;;2.67;1.50;;;18.80;81.50;;;17.71;100.00;95653.69;4965496;28;20065;-72
2023/07/30 01:32:25;;;;;;;;;;;18.80;81.40;;;17.69;100.00;95650.47;4976453;28;20410;-73
2023/07/30 01:34:53;;;;;;;2.28;1.92;;;18.90;81.30;;;17.68;100.00;95654.19;4967125;28;19996;-72
2023/07/30 01:37:19;;;;;;;2.55;1.80;;;18.90;81.40;;;17.68;100.00;95653.38;4952680;28;20081;-74
2023/07/30 01:39:45;;;;;;;2.35;1.70;;;18.90;81.50;;;17.70;100.00;95648.63;4966700;28;20070;-72
2023/07/30 01:42:14;;;;;;;3.83;1.60;;;18.90;81.30;;;17.69;100.00;95655.81;4981225;28;20125;-73
2023/07/30 01:44:39;;;;;;;4.43;1.58;;;18.90;81.30;;;17.66;100.00;95653.59;4951863;28;20026;-72
2023/07/30 01:47:05;;;;;;;2.83;1.80;;;18.80;81.10;;;17.66;100.00;95655.47;4971152;28;20122;-72
2023/07/30 01:49:31;;;;;;;4.22;1.77;;;18.80;81.30;;;17.66;100.00;95658.91;4971149;28;20446;-73
2023/07/30 01:51:56;;;;;;;1.45;1.27;;;18.80;81.20;;;17.65;100.00;95648.50;4988049;28;20090;-73
2023/07/30 01:54:22;;;;;;;1.92;1.50;;;18.80;81.30;;;17.66;100.00;95652.81;4987571;28;20054;-74
2023/07/30 01:56:48;;;;;;;3.17;1.60;;;18.80;81.10;;;17.66;100.00;95658.91;4967669;28;20066;-73
2023/07/30 01:59:14;;;;;;;2.63;1.58;;;18.80;80.90;;;17.66;100.00;95650.94;4966457;28;20227;-72
2023/07/30 02:01:41;;;;;;;2.70;1.67;;;18.80;80.90;;;17.67;100.00;95660.56;4988734;28;20037;-72
2023/07/30 02:04:07;;;;;;;2.70;1.58;;;18.90;80.90;;;17.69;100.00;95655.81;4982716;28;20074;-73
2023/07/30 02:06:32;;;;;;;2.40;1.30;;;18.80;80.90;;;17.70;100.00;95662.72;4987287;28;20109;-72
2023/07/30 02:08:58;;;;;;;3.67;1.60;;;18.90;81.20;;;17.72;100.00;95665.94;4986765;28;20042;-73
2023/07/30 02:11:24;;;;;;;2.30;1.70;;;18.90;81.70;;;17.70;100.00;95673.38;4988211;28;20393;-72
2023/07/30 02:13:50;;;;;;;4.07;1.65;;;18.80;81.10;;;17.69;100.00;95674.41;4980376;28;20069;-72
2023/07/30 02:16:15;;;;;;;2.30;1.65;;;18.80;81.50;;;17.69;100.00;95678.94;4987555;28;20121;-72
2023/07/30 02:18:41;;;;;;;2.30;1.63;;;18.80;81.50;;;17.68;100.00;95670.16;4955367;28;20031;-72
2023/07/30 02:21:07;;;;;;;2.53;1.42;;;18.90;81.50;;;17.70;100.00;95672.56;4985239;28;20085;-72
2023/07/30 02:23:33;;;;;;;3.35;1.77;;;18.90;81.50;;;17.67;100.00;95665.88;4971065;28;20109;-72
2023/07/30 02:25:58;;;;;;;3.53;1.50;;;18.80;82.00;;;17.69;100.00;95671.75;4968695;28;20524;-71
2023/07/30 02:28:24;;;;;;;2.30;1.50;;;18.90;82.00;;;17.68;100.00;95680.78;4984859;28;20062;-72
2023/07/30 02:30:50;;;;;;;5.00;2.25;;;18.80;81.90;;;17.68;100.00;95674.66;4971280;28;20154;-72
2023/07/30 02:33:15;;;;;;;4.95;2.22;;;18.70;82.50;;;17.63;100.00;95683.31;4973786;28;20152;-72
2023/07/30 02:35:43;;;;;;;3.20;1.92;;;18.70;83.60;;;17.59;100.00;95684.84;4986509;28;20564;-72
2023/07/30 02:38:09;;;;;;;3.35;1.80;;;18.60;83.90;;;17.56;100.00;95687.22;4988531;28;20030;-72
2023/07/30 02:40:35;;;;;;;3.67;2.13;;;18.60;83.90;;;17.57;100.00;95683.50;4987655;28;20072;-72
2023/07/30 02:43:00;;;;;;;3.38;2.20;;;18.70;84.30;;;17.55;100.00;95691.72;4971235;28;20072;-73
2023/07/30 02:45:26;;;;;;;5.10;2.22;;;18.60;84.50;;;17.53;100.00;95693.81;4987490;28;20116;-72
2023/07/30 02:47:52;;;;;;;3.13;2.08;;;18.60;84.50;;;17.52;100.00;95692.19;4987419;28;20221;-72
2023/07/30 02:50:18;;;;;;;2.78;2.20;;;18.60;84.60;;;17.50;100.00;95688.19;4969678;28;20053;-72
2023/07/30 02:52:43;;;;;;;3.22;2.03;;;18.60;84.50;;;17.49;100.00;95684.72;4983518;28;20034;-72
2023/07/30 02:55:09;;;;;;;4.00;2.00;;;18.60;84.60;;;17.50;100.00;95689.00;4970451;28;20122;-73
2023/07/30 02:57:35;;;;;;;3.10;2.15;;;18.60;84.80;;;17.45;100.00;95681.75;4986261;28;20034;-72
2023/07/30 03:00:01;;;;;;;4.20;2.30;;;18.60;85.10;;;17.44;100.00;95689.97;4953871;28;20036;-71
2023/07/30 03:02:26;;;;;;;4.18;2.08;;;18.60;85.10;;;17.40;100.00;95686.94;4956661;28;20124;-72
2023/07/30 03:04:52;;;;;;;3.25;2.47;;;18.50;85.30;;;17.39;100.00;95685.34;4970953;28;20085;-71
2023/07/30 03:07:19;;;;;;;4.28;2.92;;;18.50;85.80;;;17.37;100.00;95683.97;4979654;28;20041;-72
2023/07/30 03:09:45;;;;;;;3.70;2.40;;;18.50;86.00;;;17.33;100.00;95688.97;4987228;28;20050;-72
2023/07/30 03:12:11;;;;;;;2.45;2.25;;;18.40;85.80;;;17.35;100.00;95688.72;4969292;28;20133;-71
2023/07/30 03:14:37;;;;;;;3.53;2.20;;;18.40;85.80;;;17.33;100.00;95699.59;4968898;28;20062;-71
2023/07/30 03:17:04;;;;;;;4.53;2.47;;;18.50;86.10;;;17.31;100.00;95695.59;4967337;28;20077;-71
2023/07/30 03:19:30;;;;;;;3.45;2.17;;;18.40;86.10;;;17.28;100.00;95696.88;4969346;28;20030;-71
2023/07/30 03:21:56;;;;;;;2.95;2.38;;;18.30;86.20;;;17.27;100.00;95694.47;4985983;28;20049;-71
2023/07/30 03:24:22;;;;;;;4.13;2.63;;;18.40;86.00;;;17.26;100.00;95698.16;4968296;28;20050;-72
2023/07/30 03:26:47;;;;;;;3.40;2.35;;;18.30;86.20;;;17.24;100.00;95695.75;4984354;28;20066;-71
2023/07/30 03:29:14;;;;;;;3.17;2.50;;;18.30;86.30;;;17.23;100.00;95698.66;4986563;28;20065;-70
2023/07/30 03:31:40;;;;;;;3.95;2.70;;;18.30;86.20;;;17.22;100.00;95702.34;4970785;28;20045;-72
2023/07/30 03:34:05;;;;;;;4.35;2.65;;;18.30;86.30;;;17.20;100.00;95688.47;4944950;28;20506;-72
2023/07/30 03:36:31;;;;;;;3.35;2.78;;;18.30;86.30;;;17.17;100.00;95691.63;4966399;28;20106;-71
2023/07/30 03:38:57;;;;;;;2.72;2.15;;;18.20;86.60;;;17.17;100.00;95688.94;4965961;28;20487;-72
2023/07/30 03:41:26;;;;;;;4.68;2.50;;;18.30;86.40;;;17.13;100.00;95694.75;4985170;28;20465;-72
2023/07/30 03:43:52;;;;;;;3.90;2.38;;;18.20;86.40;;;17.13;100.00;95694.75;4973311;28;20026;-72
2023/07/30 03:46:17;;;;;;;3.72;2.60;;;18.20;86.40;;;17.12;100.00;95687.03;4986117;28;20054;-72
2023/07/30 03:48:43;;;;;;;4.15;3.00;;;18.20;86.40;;;17.10;100.00;95684.59;4985534;28;20474;-72
2023/07/30 03:51:09;;;;;;;3.40;2.63;;;18.20;86.40;;;17.09;100.00;95688.31;4957523;28;20108;-72
2023/07/30 03:53:35;;;;;;;3.50;2.58;;;18.30;86.30;;;17.07;100.00;95689.59;4982099;28;20133;-72
2023/07/30 03:56:01;;;;;;;3.92;2.80;;;18.20;86.30;;;17.08;100.00;95686.69;4951510;28;20049;-72
2023/07/30 03:58:27;;;;;;;5.40;3.10;;;18.30;86.30;;;17.08;100.00;95689.34;4959851;28;20034;-72
2023/07/30 04:00:53;;;;;;;5.25;3.38;;;18.20;86.50;;;17.07;100.00;95689.59;4981588;28;20109;-72
2023/07/30 04:03:19;;;;;;;4.47;3.33;;;18.20;86.60;;;17.08;100.00;95692.00;4962470;28;20062;-72
2023/07/30 04:05:44;;;;;;;3.72;3.10;;;18.20;86.60;;;17.06;100.00;95688.78;4985645;28;20070;-72
2023/07/30 04:08:10;;;;;;;3.97;2.72;;;18.20;86.40;;;17.07;100.00;95694.91;4998376;28;20070;-72
2023/07/30 04:10:36;;;;;;;4.00;3.28;;;18.30;86.30;;;17.07;100.00;95700.22;4969378;28;20525;-72
2023/07/30 04:13:02;;;;;;;5.00;3.55;;;18.30;86.30;;;17.04;100.00;95706.81;4986269;28;20065;-72
2023/07/30 04:15:27;;;;;;;3.72;2.95;;;18.30;86.20;;;17.02;100.00;95711.56;4968237;28;20030;-73
2023/07/30 04:17:54;;;;;;;4.95;2.90;;;18.20;86.40;;;17.02;100.00;95706.25;4984101;28;20105;-72
2023/07/30 04:20:21;;;;;;;3.42;3.00;;;18.20;86.50;;;17.03;100.00;95709.72;4985119;28;20039;-73
2023/07/30 04:22:47;;;;;;;3.50;2.92;;;18.30;86.30;;;17.02;100.00;95708.91;4984406;28;20026;-73
2023/07/30 04:25:13;;;;;;;4.47;2.90;;;18.30;86.30;;;17.04;100.00;95714.78;4985879;28;20030;-73
2023/07/30 04:27:39;;;;;;;4.63;2.80;;;18.30;86.20;;;17.05;100.00;95713.75;4984941;28;20037;-72
2023/07/30 04:30:06;;;;;;;4.00;2.90;;;18.40;86.10;;;17.06;100.00;95709.25;4987598;28;20039;-71
2023/07/30 04:32:32;;;;;;;3.95;2.90;;;18.30;86.00;;;17.07;100.00;95708.19;4977739;28;20758;-72
2023/07/30 04:34:57;;;;;;;3.25;2.63;;;18.30;86.00;;;17.07;100.00;95705.53;4969483;28;20030;-72
2023/07/30 04:37:23;;;;;;;3.67;2.72;;;18.30;86.00;;;17.06;100.00;95714.56;4986961;28;20065;-72
2023/07/30 04:39:49;;;;;;;5.03;3.05;;;18.30;86.20;;;17.05;100.00;95724.38;4984268;28;20041;-72
2023/07/30 04:42:15;;;;;;;4.35;3.05;;;18.30;86.30;;;17.04;100.00;95722.78;4983554;28;20041;-72
2023/07/30 04:44:41;;;;;;;4.60;2.95;;;18.20;86.30;;;17.02;100.00;95722.22;4984312;28;20659;-72
2023/07/30 04:47:07;;;;;;;4.85;3.10;;;18.20;86.70;;;17.01;100.00;95723.25;4985772;28;20062;-72
2023/07/30 04:49:33;;;;;;;4.90;3.25;;;18.30;86.60;;;17.02;100.00;95726.72;4981358;28;20061;-73
2023/07/30 04:51:59;;;;;;;3.15;2.80;;;18.30;86.70;;;17.03;100.00;95737.09;4963181;28;20030;-72
2023/07/30 04:54:24;;;;;;;3.80;2.45;;;18.30;86.60;;;17.04;100.00;95738.72;4981428;28;20208;-73
2023/07/30 04:56:50;;;;;;;3.70;2.50;;;18.30;86.40;;;17.06;100.00;95735.81;4984520;28;20046;-72
2023/07/30 04:59:16;;;;;;;4.32;2.65;;;18.40;86.60;;;17.08;100.00;95739.03;4974181;28;20478;-72
2023/07/30 05:01:42;;;;;;;3.22;2.42;;;18.40;86.30;;;17.11;100.00;95738.56;4966112;28;20109;-73
2023/07/30 05:04:07;;;;;;;2.88;2.30;;;18.40;85.90;;;17.13;100.00;95741.78;4984842;28;20129;-72
2023/07/30 05:06:33;;;;;;;5.60;2.45;;;18.50;86.00;;;17.15;100.00;95748.47;4984423;28;20113;-72
2023/07/30 05:08:59;;;;;;;3.40;2.63;;;18.50;86.00;;;17.20;100.00;95753.09;4972677;28;20078;-72
2023/07/30 05:11:25;;;;;;;3.25;2.50;;;18.50;85.90;;;17.22;100.00;95755.50;4985152;28;20038;-72
2023/07/30 05:13:50;;;;;;;3.35;2.28;;;18.60;85.80;;;17.26;100.00;95756.63;4984577;28;20855;-73
2023/07/30 05:16:16;;;;;;;3.13;2.20;;;18.60;85.50;;;17.29;100.00;95756.97;4958290;28;20602;-73
2023/07/30 05:18:42;;;;;;;3.80;2.78;;;18.60;85.30;;;17.34;100.00;95753.59;4963679;28;20106;-72
2023/07/30 05:21:07;;;;;;;3.85;2.42;;;18.70;84.90;;;17.37;100.00;95763.72;4971130;28;20121;-72
2023/07/30 05:23:33;;;;;;;3.83;2.78;;;18.70;84.70;;;17.41;100.00;95755.03;4968979;28;20152;-72
2023/07/30 05:25:59;;;;;;;4.00;3.05;;;18.70;84.70;;;17.46;100.00;95751.69;4980222;28;20107;-73
2023/07/30 05:28:25;;;;;;;3.88;3.05;;;18.80;84.70;;;17.48;100.00;95749.59;4985502;28;20125;-72
2023/07/30 05:30:51;;;;;;;4.88;3.00;;;18.80;85.00;;;17.52;100.00;95761.34;4988010;28;20026;-73
2023/07/30 05:33:17;;;;;;;3.47;2.30;;;18.90;84.70;;;17.55;100.00;95758.19;4990213;28;20542;-72
2023/07/30 05:35:44;;;;;;;3.60;2.50;;;18.90;84.50;;;17.58;100.00;95771.00;4986865;28;20068;-73
2023/07/30 05:38:09;;;;;;;2.47;1.77;;;18.90;84.40;;;17.61;100.00;95775.84;4988851;28;20161;-72
2023/07/30 05:40:35;;;;;;;2.97;2.33;;;19.00;84.50;;;17.67;100.00;95780.25;4987270;28;20058;-72
2023/07/30 05:43:01;;;;;;;4.03;2.15;;;19.10;84.20;;;17.74;100.00;95778.25;4986528;28;20053;-70
2023/07/30 05:45:27;;;;;;;2.78;2.15;;;19.20;84.00;;;17.82;100.00;95776.22;4986696;28;20129;-72
2023/07/30 05:47:53;;;;;;;3.25;2.00;;;19.30;83.60;;;17.91;100.00;95780.91;4970075;28;20168;-72
2023/07/30 05:50:18;;;;;;;2.97;2.13;;;19.50;83.40;;;18.00;100.00;95778.63;4982926;28;20724;-72
2023/07/30 05:52:44;;;;;;;4.75;2.42;;;19.50;82.00;;;18.06;100.00;95772.31;4965286;28;20589;-73
2023/07/30 05:55:10;;;;;;;3.47;2.33;;;19.70;82.60;;;18.17;100.00;95776.75;4981097;28;20474;-72
2023/07/30 05:57:36;;;;;;;3.55;2.20;;;19.80;81.90;;;18.26;100.00;95777.16;4954749;28;20510;-69
2023/07/30 06:00:02;;;;;;;3.40;2.30;;;19.90;81.60;;;18.40;100.00;95780.28;4962935;28;20280;-71
2023/07/30 06:02:28;;;;;;;4.63;2.13;;;20.10;81.50;;;18.49;100.00;95782.25;4982649;28;20121;-72
2023/07/30 06:04:53;;;;;;;4.00;2.10;;;20.10;81.20;;;18.57;100.00;95762.41;4985207;28;20062;-72
2023/07/30 06:07:19;;;;;;;2.28;1.98;;;20.20;80.40;;;18.66;100.00;95766.25;4987010;28;20077;-72
2023/07/30 06:09:45;;;;;;;3.42;1.90;;;20.40;79.60;;;18.76;100.00;95771.69;4985349;28;20093;-72
2023/07/30 06:12:11;;;;;;;3.75;2.10;;;20.60;79.70;;;18.87;100.00;95770.78;4986403;28;20114;-72
2023/07/30 06:14:36;;;;;;;2.10;1.67;;;20.70;79.10;;;19.01;100.00;95762.38;4979910;28;20038;-73
2023/07/30 06:17:02;;;;;;;2.95;2.10;;;20.90;78.80;;;19.15;100.00;95769.75;4987049;28;20062;-72
2023/07/30 06:19:28;;;;;;;4.95;2.10;;;21.10;77.50;;;19.31;100.00;95773.41;4983666;28;20414;-73
2023/07/30 06:21:54;;;;;;;2.67;1.90;;;21.20;76.30;;;19.44;100.00;95772.97;4985087;28;20097;-73
2023/07/30 06:24:20;;;;;;;3.88;1.90;;;21.40;75.80;;;19.58;100.00;95778.75;4962280;28;20112;-73
2023/07/30 06:26:45;;;;;;;3.90;2.00;;;21.60;76.00;;;19.74;100.00;95771.69;4980106;28;20046;-73
2023/07/30 06:29:11;;;;;;;3.53;2.20;;;21.80;75.00;;;19.89;100.00;95774.47;4966736;28;20062;-73
2023/07/30 06:31:37;;;;;;;4.03;2.35;;;22.10;74.60;;;20.07;100.00;95766.06;4962384;28;20063;-73
2023/07/30 06:34:02;;;;;;;2.83;2.08;;;22.30;73.60;;;20.25;100.00;95767.53;4981077;28;20066;-71
2023/07/30 06:36:28;;;;;;;5.93;2.03;;;22.50;72.80;;;20.40;100.00;95758.78;4966949;28;20046;-73
2023/07/30 06:38:54;;;;;;;2.42;1.58;;;22.70;71.40;;;20.56;100.00;95765.84;4965788;28;20153;-72
2023/07/30 06:41:21;;;;;;;2.20;1.58;;;22.90;71.10;;;20.71;100.00;95765.13;4978634;28;20235;-72
2023/07/30 06:43:46;;;;;;;2.92;1.67;;;23.00;70.40;;;20.86;100.00;95762.53;4963814;28;20046;-71
2023/07/30 06:46:12;;;;;;;3.45;1.80;;;23.30;70.10;;;20.99;100.00;95769.22;4967765;28;20569;-69
2023/07/30 06:48:38;;;;;;;2.55;1.65;;;23.40;68.80;;;21.14;100.00;95763.94;4981047;28;20764;-68
2023/07/30 06:51:07;;;;;;;3.10;1.48;;;23.60;68.60;;;21.31;100.00;95764.56;4976664;28;20578;-71
2023/07/30 06:53:33;;;;;;;1.63;1.40;;;24.00;67.40;;;21.44;100.00;95768.56;4949803;28;20035;-72
2023/07/30 06:55:58;;;;;;;2.53;1.70;;;24.10;66.10;;;21.56;100.00;95765.66;4974741;28;20157;-74
2023/07/30 06:58:24;;;;;;;2.70;1.75;;;23.80;66.00;;;21.66;100.00;95768.34;4966010;28;20027;-68
2023/07/30 07:00:50;;;;;;;1.85;1.42;;;24.10;66.40;;;21.77;100.00;95772.63;4976053;28;20118;-69
2023/07/30 07:03:16;;;;;;;3.60;2.00;;;24.20;65.40;;;21.88;100.00;95779.59;4948046;28;20074;-71
2023/07/30 07:05:41;;;;;;;3.88;1.73;;;24.40;65.80;;;21.99;100.00;95778.53;4948900;28;20042;-71
2023/07/30 07:08:07;;;;;;;2.72;1.90;;;24.60;64.80;;;22.13;100.00;95775.31;4985362;28;20074;-73
2023/07/30 07:10:33;;;;;;;3.55;2.08;;;24.80;63.30;;;22.22;100.00;95777.19;4970444;28;20058;-71
2023/07/30 07:12:58;;;;;;;2.33;1.90;;;24.90;62.40;;;22.35;100.00;95777.69;4967085;28;20134;-70
2023/07/30 07:15:24;;;;;;;4.85;2.20;;;25.20;62.80;;;22.53;100.00;95785.97;4960821;28;20035;-70
2023/07/30 07:17:50;;;;;;;5.90;1.90;;;25.40;61.50;;;22.73;99.41;95778.94;4981957;28;20634;-70
2023/07/30 07:20:16;;;;;;;3.75;2.03;;;25.70;60.00;;;22.90;98.62;95780.25;4965514;28;20125;-71
2023/07/30 07:22:41;;;;;;;5.40;2.90;;;25.90;60.10;;;23.15;97.43;95771.28;4983489;28;20057;-71
2023/07/30 07:25:08;;;;;;;5.65;3.78;;;26.30;59.60;;;23.36;96.00;95781.94;4947513;28;20074;-72
2023/07/30 07:27:34;;;;;;;3.08;2.10;;;26.30;59.30;;;23.57;94.54;95770.00;4966031;28;20034;-72
2023/07/30 07:30:00;;;;;;;1.83;1.50;;;26.80;57.50;;;23.80;93.43;95774.69;4966021;28;20077;-70
2023/07/30 07:32:25;;;;;;;2.50;1.48;;;26.80;58.40;;;23.94;91.57;95776.69;4957796;28;20479;-70
2023/07/30 07:34:51;;;;;;;2.83;1.40;;;26.30;58.00;;;24.01;88.74;95777.19;4982016;28;20141;-70
2023/07/30 07:37:18;;;;;;;2.15;1.50;;;26.20;58.40;;;24.06;89.01;95779.84;4965247;28;20086;-72
2023/07/30 07:39:45;;;;;;;3.42;1.50;;;26.30;59.40;;;24.07;86.21;95776.06;4930200;28;20030;-71
2023/07/30 07:42:11;;;;;;;3.00;1.58;;;25.90;57.60;;;24.01;85.27;95774.53;4970459;28;20049;-71
2023/07/30 07:44:37;;;;;;;3.15;1.30;;;25.80;57.90;;;23.94;84.72;95782.06;4976517;28;20054;-68
2023/07/30 07:47:02;;;;;;;2.28;1.30;;;25.60;59.00;;;23.87;85.05;95781.59;4978902;28;20561;-70
2023/07/30 07:49:28;;;;;;;2.42;1.50;;;25.50;60.00;;;23.81;85.10;95784.34;4966118;28;20034;-71
2023/07/30 07:51:54;;;;;;;2.40;1.48;;;25.50;60.10;;;23.74;85.19;95785.72;4960783;28;20519;-71
2023/07/30 07:54:20;;;;;;;3.30;1.60;;;25.40;60.10;;;23.65;84.39;95788.22;4978666;28;20058;-74
2023/07/30 07:56:45;;;;;;;2.05;1.35;;;25.30;59.70;;;23.63;84.06;95785.00;4976086;28;20117;-72
2023/07/30 07:59:11;;;;;;;2.38;1.35;;;25.60;58.70;;;23.58;83.73;95789.59;4985060;28;20062;-70
2023/07/30 08:01:37;;;;;;;3.15;1.55;;;25.50;59.50;;;23.48;84.60;95769.75;4965022;28;20168;-71
2023/07/30 08:04:03;;;;;;;2.55;1.60;;;25.30;60.10;;;23.45;84.24;95770.31;4996153;28;20537;-71
2023/07/30 08:06:29;;;;;;;1.88;1.40;;;25.30;60.50;;;23.49;84.51;95775.91;4982439;28;20053;-71
2023/07/30 08:08:55;;;;;;;1.80;1.38;;;25.80;59.20;;;23.66;85.19;95787.13;4962306;28;20042;-71
2023/07/30 08:11:21;;;;;;;2.78;1.55;;;26.50;57.30;;;23.95;84.97;95787.16;4980482;28;20093;-71
2023/07/30 08:13:46;;;;;;;3.30;1.20;;;27.20;56.20;;;24.33;83.92;95782.84;4962935;28;20066;-72
2023/07/30 08:16:12;;;;;;;2.65;1.48;;;27.60;55.30;;;24.75;82.83;95778.66;4976283;28;20120;-73
2023/07/30 08:18:38;;;;;;;1.85;1.30;;;28.20;53.70;;;25.16;81.32;95776.31;4982331;28;20038;-72
2023/07/30 08:21:04;;;;;;;3.60;1.50;;;28.60;52.20;;;25.53;79.37;95774.69;4981542;28;20077;-71
2023/07/30 08:23:29;;;;;;;2.75;1.38;;;29.10;50.30;;;25.84;77.24;95758.94;4964328;28;20038;-71
2023/07/30 08:25:55;;;;;;;2.17;1.40;;;29.30;48.70;;;26.18;75.50;95762.09;4978559;28;20154;-71
2023/07/30 08:28:21;;;;;;;2.08;1.23;;;29.80;48.60;;;26.64;75.12;95769.41;4977789;28;20537;-72
2023/07/30 08:30:47;;;;;;;1.73;1.05;;;30.40;48.00;;;26.97;73.43;95764.72;4978828;28;20070;-71
2023/07/30 08:33:13;;;;;;;2.10;1.30;;;30.20;47.30;;;27.28;71.18;95753.31;4950962;28;20459;-70
2023/07/30 08:35:39;;;;;;;2.47;1.35;;;30.30;46.10;;;27.53;68.98;95747.31;4967541;28;20095;-70
2023/07/30 08:38:05;;;;;;;2.58;1.65;;;30.40;45.00;;;27.80;67.97;95743.75;4963440;28;20125;-71
2023/07/30 08:40:31;;;;;;;2.00;1.38;;;31.00;45.00;;;28.15;66.95;95738.59;4958274;28;20053;-72
2023/07/30 08:42:57;;;;;;;2.42;1.20;;;31.40;44.60;;;28.33;65.34;95734.91;4949892;28;20022;-74
2023/07/30 08:45:23;;;;;;;2.28;1.20;;;30.90;44.70;;;28.34;64.09;95731.88;4961028;28;20065;-73
2023/07/30 08:47:49;;;;;;;2.17;1.48;;;30.70;45.30;;;28.35;62.93;95732.69;4979452;28;20039;-71
2023/07/30 08:50:15;;;;;;;1.80;1.40;;;30.50;44.90;;;28.18;62.89;95721.72;4991970;28;20046;-73
2023/07/30 08:52:41;;;;;;;2.47;1.23;;;30.00;45.30;;;27.90;62.60;95719.19;4945127;28;20507;-72
2023/07/30 08:55:07;;;;;;;2.00;1.30;;;29.40;47.40;;;27.53;61.80;95717.59;4946800;28;20050;-70
2023/07/30 08:57:33;;;;;;;1.92;1.30;;;28.60;47.60;;;27.15;62.88;95727.91;4973180;28;20490;-72
2023/07/30 09:00:08;;;;;;;1.77;1.40;;;28.40;49.30;;;26.85;61.40;95723.94;4944830;28;20039;-72
2023/07/30 09:02:39;;;;;;;1.45;1.25;;;28.10;49.80;;;26.59;62.95;95723.66;4963472;28;20027;-70
2023/07/30 09:05:06;;;;;;;2.08;1.30;;;28.40;50.20;;;26.42;63.57;95721.53;4945407;28;20049;-71
2023/07/30 09:07:32;;;;;;;2.08;1.35;;;27.80;50.10;;;26.24;64.55;95731.25;4967980;28;20034;-67
2023/07/30 09:09:58;;;;;;;2.63;1.38;;;27.50;51.20;;;25.99;64.22;95734.41;4959544;28;20581;-67
2023/07/30 09:12:30;;;;;;;1.67;1.20;;;27.20;51.60;;;25.80;64.61;95737.16;4984045;28;20121;-67
2023/07/30 09:14:59;;;;;;;2.20;1.15;;;27.10;53.10;;;25.50;67.88;95743.78;4976193;28;20042;-67
2023/07/30 09:17:25;;;;;;;3.72;1.40;;;26.70;55.50;;;25.25;69.23;95725.28;4956556;28;20038;-69
2023/07/30 09:19:52;;;;;;;2.08;1.42;;;26.60;56.00;;;25.14;70.62;95724.66;4940892;28;20058;-68
2023/07/30 09:22:28;;;;;;;3.50;1.70;;;27.10;55.30;;;25.24;71.92;95724.50;4982711;28;20042;-68
2023/07/30 09:24:57;;;;;;;2.08;1.38;;;27.80;54.50;;;25.57;70.76;95719.16;4958640;28;20066;-68
2023/07/30 09:27:27;;;;;;;1.63;1.35;;;28.50;52.10;;;25.90;71.98;95720.00;4966756;28;20042;-67
2023/07/30 09:29:57;;;;;;;2.25;1.40;;;29.00;52.10;;;26.33;69.94;95706.31;4980828;28;20050;-67
2023/07/30 09:32:27;;;;;;;2.05;1.50;;;29.70;48.50;;;26.71;66.14;95693.47;4965449;28;20042;-67
2023/07/30 09:34:53;;;;;;;;;;;29.80;47.30;;;27.10;64.95;95687.53;4946257;28;20066;-66
2023/07/30 09:37:18;;;;;;;1.48;1.10;;;30.50;47.20;;;27.53;66.40;95695.19;4984319;28;19921;-67
2023/07/30 09:39:44;;;;;;;1.67;1.38;;;31.10;45.20;;;27.84;64.05;95684.47;4965267;28;20058;-66
2023/07/30 09:42:10;;;;;;;2.10;1.20;;;31.00;44.10;;;28.15;62.20;95681.78;4965883;28;20027;-67
2023/07/30 09:44:38;;;;;;;2.10;1.40;;;31.40;43.40;;;28.54;60.24;95681.84;4961349;28;20114;-67
2023/07/30 09:47:05;;;;;;;2.17;1.02;;;32.00;42.00;;;28.86;59.20;95669.03;4966392;28;20593;-66
2023/07/30 09:49:34;;;;;;;1.55;1.17;;;32.40;40.80;;;29.20;58.60;95671.81;4962785;28;20026;-67
2023/07/30 09:52:00;;;;;;;3.72;1.25;;;32.70;41.20;;;29.39;56.19;95654.41;4960020;28;20034;-68
2023/07/30 09:54:26;;;;;;;2.80;1.30;;;32.00;39.20;;;29.41;54.64;95654.88;4948039;28;20130;-67
2023/07/30 09:56:52;;;;;;;1.92;1.10;;;32.30;39.00;;;29.38;53.35;95642.78;4945243;28;20526;-68
2023/07/30 09:59:17;;;;;;;1.88;0.93;;;31.50;38.60;;;29.10;52.37;95645.00;4980248;28;20058;-67
2023/07/30 10:01:45;;;;;;;3.83;1.13;;;31.20;39.60;;;29.19;52.09;95640.38;4978866;28;20054;-68
2023/07/30 10:04:11;;;;;;;3.22;1.13;;;32.20;39.00;;;29.42;51.10;95634.78;4950286;28;20494;-67
2023/07/30 10:06:48;;;;;;;2.30;1.63;;;32.50;37.60;;;29.67;47.96;95615.03;4959920;28;20039;-68
2023/07/30 10:09:14;;;;;;;3.10;1.30;;;33.00;36.70;;;29.71;50.81;95647.72;4970287;28;20042;-67
2023/07/30 10:11:40;;;;;;;3.10;1.00;;;32.60;37.40;;;29.72;50.72;95655.53;4960497;28;20545;-69